Informes METAR cercanos


LEVC - Manises, Valencia, ESPAÑA
Distance from station: NNE 72km
Actualización: 08/04/2020 00:00
Algunas nubes
Algunas nubes
 Viento del NNE
Viento: NNE 4 km/h
Temperatura: 15°C
Rocío: 12°C
Humedad: 82%
Barómetro: 1027 hPa
Clouds: Algunas nubes
Visibility: 10 km
Cloud details: Algunas nubes 366 m
2020/04/07 22:00 LEVC 072200Z 03002KT 9999 FEW012 15/12 Q1027 NOSIG
LEAL - El Altet, Alicante, ESPAÑA
Distance from station: S 70km
Actualización: 08/04/2020 00:00
Algunas nubes
Algunas nubes
 Viento del NE
Viento: NE 6 km/h
Temperatura: 14°C
Rocío: 11°C
Humedad: 82%
Barómetro: 1026 hPa
Clouds: Algunas nubes
Visibility: 10 km
Cloud details: Algunas nubes 488 m
2020/04/07 22:00 LEAL 072200Z 05003KT 9999 FEW016 14/11 Q1026 NOSIG
 
LELC - San Javier, Murcia, ESPAÑA
Distance from station: SSO 188km
Actualización: 08/04/2020 00:00
Muy nuboso
Muy nuboso
 Viento del NE
Viento: NE 13 km/h
Temperatura: 15°C
Rocío: 12°C
Humedad: 82%
Barómetro: 1026 hPa
Clouds: Muy nuboso
Visibility: 10 km
Cloud details: Muy nuboso 579 m
2020/04/07 22:00 LELC 072200Z AUTO 05007KT 9999 BKN019 15/12 Q1026
LEAB - Los Llanos, Albacete, ESPAÑA
Distance from station: O 143km
Actualización: 08/04/2020 00:00
Despejado
Despejado
 Viento del SE
Viento: SE 9 km/h
Temperatura: 11°C
Rocío: 7°C
Humedad: 77%
Barómetro: 1026 hPa
Resumen: Despejado
Visibility: Mas de 10 km
2020/04/07 22:00 LEAB 072200Z 14005KT CAVOK 11/07 Q1026 NOSIG